createdAt,value
2018-10-05T00:01:15.443Z,6.00
2018-10-05T00:03:43.915Z,5.80
2018-10-05T00:06:12.432Z,6.00
2018-10-05T00:08:40.930Z,6.60
2018-10-05T00:11:09.577Z,6.20
2018-10-05T00:13:38.215Z,6.40
2018-10-05T00:16:07.070Z,5.60
2018-10-05T00:18:35.527Z,6.03
2018-10-05T00:21:04.056Z,5.83
2018-10-05T00:23:32.510Z,4.87
2018-10-05T00:26:00.969Z,6.30
2018-10-05T00:28:29.426Z,5.87
2018-10-05T00:30:57.915Z,6.33
2018-10-05T00:33:26.384Z,6.40
2018-10-05T00:35:54.905Z,6.70
2018-10-05T00:38:23.426Z,5.37
2018-10-05T00:40:56.908Z,6.60
2018-10-05T00:43:25.399Z,6.53
2018-10-05T00:45:53.901Z,6.03
2018-10-05T00:48:22.386Z,6.07
2018-10-05T00:50:50.870Z,6.30
2018-10-05T00:53:19.376Z,6.03
2018-10-05T00:55:47.909Z,6.73
2018-10-05T00:58:16.349Z,7.13
2018-10-05T01:00:44.836Z,6.63
2018-10-05T01:03:13.315Z,6.67
2018-10-05T01:05:41.756Z,6.53
2018-10-05T01:08:10.214Z,7.30
2018-10-05T01:10:38.997Z,7.77
2018-10-05T01:13:07.704Z,6.73
2018-10-05T01:15:36.197Z,6.30
2018-10-05T01:18:04.688Z,6.67
2018-10-05T01:20:33.206Z,7.73
2018-10-05T01:23:01.671Z,7.30
2018-10-05T01:25:30.132Z,7.23
2018-10-05T01:27:58.828Z,7.03
2018-10-05T01:30:27.343Z,5.93
2018-10-05T01:32:55.872Z,5.57
2018-10-05T01:35:24.336Z,6.50
2018-10-05T01:37:52.801Z,5.60
2018-10-05T01:40:21.291Z,5.57
2018-10-05T01:42:49.748Z,6.10
2018-10-05T01:45:18.205Z,6.47
2018-10-05T01:47:46.666Z,6.53
2018-10-05T01:50:15.124Z,6.17
2018-10-05T01:52:43.596Z,5.60
2018-10-05T01:55:12.072Z,6.73
2018-10-05T01:57:40.554Z,6.00
2018-10-05T02:00:09.119Z,6.60
2018-10-05T02:02:37.810Z,5.87
2018-10-05T02:05:06.317Z,6.50
2018-10-05T02:07:34.785Z,5.17
2018-10-05T02:10:03.248Z,5.90
2018-10-05T02:12:31.735Z,6.00
2018-10-05T02:15:00.217Z,5.90
2018-10-05T02:17:28.675Z,6.63
2018-10-05T02:19:57.128Z,7.00
2018-10-05T02:22:25.605Z,7.10
2018-10-05T02:24:54.072Z,6.77
2018-10-05T02:27:22.584Z,5.80
2018-10-05T02:29:51.014Z,7.13
2018-10-05T02:32:19.485Z,6.03
2018-10-05T02:34:47.950Z,6.57
2018-10-05T02:37:16.547Z,5.97
2018-10-05T02:39:45.027Z,5.63
2018-10-05T02:42:13.512Z,6.33
2018-10-05T02:44:41.952Z,6.97
2018-10-05T02:47:10.445Z,5.93
2018-10-05T02:49:38.924Z,6.67
2018-10-05T02:52:07.418Z,6.17
2018-10-05T02:54:35.956Z,5.87
2018-10-05T02:57:04.433Z,5.30
2018-10-05T02:59:32.913Z,5.80
2018-10-05T03:02:12.739Z,5.90
2018-10-05T03:04:41.193Z,6.03
2018-10-05T03:07:09.657Z,5.13
2018-10-05T03:09:38.105Z,4.83
2018-10-05T03:12:06.659Z,4.90
2018-10-05T03:14:35.128Z,4.97
2018-10-05T03:17:03.609Z,5.73
2018-10-05T03:19:32.110Z,5.97
2018-10-05T03:22:00.566Z,5.50
2018-10-05T03:24:29.019Z,6.53
2018-10-05T03:26:57.598Z,5.40
2018-10-05T03:29:26.165Z,4.93
2018-10-05T03:31:54.654Z,5.80
2018-10-05T03:34:23.117Z,5.77
2018-10-05T03:36:51.656Z,5.37
2018-10-05T03:39:20.119Z,5.20
2018-10-05T03:41:48.597Z,5.80
2018-10-05T03:44:17.055Z,6.33
2018-10-05T03:46:45.548Z,5.00
2018-10-05T03:49:14.007Z,5.60
2018-10-05T03:51:42.466Z,6.13
2018-10-05T03:54:10.916Z,4.70
2018-10-05T03:56:39.396Z,5.80
2018-10-05T03:59:07.865Z,4.80
2018-10-05T04:01:36.474Z,5.57
2018-10-05T04:04:05.008Z,5.23
2018-10-05T04:06:33.544Z,6.23
2018-10-05T04:09:02.009Z,5.50
2018-10-05T04:11:30.471Z,4.87
2018-10-05T04:13:58.940Z,5.47
2018-10-05T04:16:27.404Z,5.57
2018-10-05T04:18:55.865Z,5.67
2018-10-05T04:21:24.339Z,5.80
2018-10-05T04:23:52.811Z,5.47
2018-10-05T04:26:21.290Z,4.90
2018-10-05T04:28:49.805Z,5.17
2018-10-05T04:31:18.366Z,4.13
2018-10-05T04:33:47.175Z,5.43
2018-10-05T04:36:15.807Z,4.50
2018-10-05T04:38:44.373Z,5.00
2018-10-05T04:41:12.880Z,6.00
2018-10-05T04:43:41.369Z,6.57
2018-10-05T04:46:09.832Z,5.23
2018-10-05T04:48:38.325Z,6.37
2018-10-05T04:51:06.867Z,4.97
2018-10-05T04:53:35.323Z,6.30
2018-10-05T04:56:03.824Z,5.43
2018-10-05T04:58:32.366Z,5.10
2018-10-05T05:01:01.039Z,5.73
2018-10-05T05:03:29.548Z,5.30
2018-10-05T05:05:57.990Z,5.57
2018-10-05T05:08:26.649Z,5.90
2018-10-05T05:11:45.327Z,5.47
2018-10-05T05:14:13.860Z,4.87
2018-10-05T05:16:42.152Z,4.97
2018-10-05T05:19:10.404Z,5.57
2018-10-05T05:21:38.657Z,6.33
2018-10-05T05:24:06.937Z,6.47
2018-10-05T05:26:35.198Z,6.90
2018-10-05T05:29:03.575Z,5.80
2018-10-05T05:31:31.855Z,5.80
2018-10-05T05:34:00.192Z,6.23
2018-10-05T05:36:28.402Z,6.20
2018-10-05T05:38:56.666Z,6.27
2018-10-05T05:41:24.988Z,6.63
2018-10-05T05:43:53.251Z,6.20
2018-10-05T05:46:21.496Z,6.20
2018-10-05T05:48:49.754Z,6.30
2018-10-05T05:51:17.999Z,6.20
2018-10-05T05:53:46.336Z,7.77
2018-10-05T05:56:14.653Z,7.20
2018-10-05T05:58:42.893Z,7.37
2018-10-05T06:01:11.300Z,8.33
2018-10-05T06:03:39.503Z,7.13
2018-10-05T06:06:07.759Z,8.07
2018-10-05T06:08:36.027Z,7.93
2018-10-05T06:11:04.271Z,6.33
2018-10-05T06:13:32.525Z,6.27
2018-10-05T06:16:00.839Z,8.23
2018-10-05T06:18:29.034Z,11.00
2018-10-05T06:20:57.526Z,7.70
2018-10-05T06:23:25.830Z,6.10
2018-10-05T06:25:54.118Z,5.00
2018-10-05T06:28:22.383Z,5.00
2018-10-05T06:30:50.770Z,5.23
2018-10-05T06:33:19.002Z,4.50
2018-10-05T06:35:47.208Z,4.90
2018-10-05T06:38:15.506Z,4.97
2018-10-05T06:40:43.981Z,4.93
2018-10-05T06:43:12.234Z,4.80
2018-10-05T06:45:40.497Z,5.10
2018-10-05T06:48:08.818Z,5.17
2018-10-05T06:50:37.070Z,5.00
2018-10-05T06:53:05.395Z,5.03
2018-10-05T06:55:33.591Z,4.97
2018-10-05T06:58:01.831Z,5.00
2018-10-05T07:00:30.085Z,5.53
2018-10-05T07:02:58.345Z,5.87
2018-10-05T07:05:26.612Z,5.87
2018-10-05T07:07:54.970Z,5.13
2018-10-05T07:10:23.173Z,5.70
2018-10-05T07:12:51.485Z,5.40
2018-10-05T07:15:19.743Z,6.20
2018-10-05T07:17:47.996Z,6.00
2018-10-05T07:20:16.265Z,6.60
2018-10-05T07:22:44.570Z,5.63
2018-10-05T07:25:12.838Z,5.90
2018-10-05T07:27:41.848Z,6.43
2018-10-05T07:30:10.105Z,6.33
2018-10-05T07:32:38.357Z,5.57
2018-10-05T07:35:06.626Z,5.40
2018-10-05T07:37:34.880Z,6.30
2018-10-05T07:40:03.133Z,6.37
2018-10-05T07:42:31.405Z,6.87
2018-10-05T07:44:59.749Z,6.37
2018-10-05T07:47:27.998Z,6.87
2018-10-05T07:49:56.246Z,6.27
2018-10-05T07:52:24.512Z,6.80
2018-10-05T07:54:52.759Z,5.97
2018-10-05T07:57:21.057Z,6.13
2018-10-05T07:59:49.273Z,6.60
2018-10-05T08:02:17.726Z,5.83
2018-10-05T08:04:45.990Z,6.07
2018-10-05T08:07:14.311Z,6.40
2018-10-05T08:09:42.621Z,6.07
2018-10-05T08:12:10.816Z,6.07
2018-10-05T08:14:39.084Z,6.23
2018-10-05T08:17:07.410Z,5.57
2018-10-05T08:19:35.678Z,6.53
2018-10-05T08:22:03.956Z,5.87
2018-10-05T08:24:32.225Z,5.97
2018-10-05T08:27:00.792Z,5.90
2018-10-05T08:29:29.037Z,5.60
2018-10-05T08:31:57.321Z,5.50
2018-10-05T08:34:25.634Z,6.20
2018-10-05T08:36:53.901Z,5.90
2018-10-05T08:39:22.197Z,5.63
2018-10-05T08:41:50.469Z,5.60
2018-10-05T08:44:18.739Z,6.30
2018-10-05T08:46:47.031Z,6.03
2018-10-05T08:49:15.433Z,5.97
2018-10-05T08:51:43.727Z,5.37
2018-10-05T08:54:12.033Z,5.20
2018-10-05T08:56:40.329Z,5.23
2018-10-05T08:59:08.598Z,5.20
2018-10-05T09:01:36.890Z,5.07
2018-10-05T09:04:05.167Z,4.93
2018-10-05T09:06:33.434Z,5.63
2018-10-05T09:09:01.684Z,5.50
2018-10-05T09:11:30.331Z,5.80
2018-10-05T09:13:58.605Z,5.00
2018-10-05T09:16:26.868Z,5.30
2018-10-05T09:18:55.154Z,5.00
2018-10-05T09:21:23.602Z,4.87
2018-10-05T09:23:51.949Z,4.50
2018-10-05T09:26:20.218Z,4.33
2018-10-05T09:28:48.525Z,4.60
2018-10-05T09:31:16.785Z,4.80
2018-10-05T09:33:45.049Z,4.33
2018-10-05T09:36:13.308Z,4.47
2018-10-05T09:38:41.584Z,4.47
2018-10-05T09:41:09.865Z,4.43
2018-10-05T09:43:38.131Z,3.97
2018-10-05T09:46:06.433Z,4.17
2018-10-05T09:48:34.696Z,4.53
2018-10-05T09:51:02.961Z,4.80
2018-10-05T09:53:31.361Z,5.00
2018-10-05T09:55:59.638Z,4.37
2018-10-05T09:58:27.917Z,4.50
2018-10-05T10:01:01.584Z,5.03
2018-10-05T10:03:31.300Z,5.10
2018-10-05T10:05:59.883Z,4.80
2018-10-05T10:08:28.467Z,5.23
2018-10-05T10:10:56.742Z,5.10
2018-10-05T10:13:25.009Z,4.63
2018-10-05T10:15:53.273Z,5.27
2018-10-05T10:18:21.537Z,5.20
2018-10-05T10:20:49.795Z,5.30
2018-10-05T10:23:18.239Z,5.47
2018-10-05T10:25:46.490Z,5.20
2018-10-05T10:28:14.793Z,5.20
2018-10-05T10:30:43.029Z,5.43
2018-10-05T10:33:11.356Z,4.30
2018-10-05T10:35:39.717Z,4.60
2018-10-05T10:38:07.982Z,4.27
2018-10-05T10:40:36.246Z,4.73
2018-10-05T10:43:04.497Z,5.00
2018-10-05T10:45:32.748Z,4.87
2018-10-05T10:48:01.028Z,5.50
2018-10-05T10:50:29.292Z,4.40
2018-10-05T10:52:57.647Z,5.08
2018-10-05T10:55:25.852Z,5.47
2018-10-05T10:57:54.122Z,4.70
2018-10-05T11:00:22.422Z,4.53
2018-10-05T11:02:50.687Z,4.53
2018-10-05T11:05:19.013Z,4.77
2018-10-05T11:07:47.350Z,4.93
2018-10-05T11:10:15.606Z,5.17
2018-10-05T11:12:43.876Z,5.20
2018-10-05T11:15:12.125Z,4.20
2018-10-05T11:17:40.379Z,4.47
2018-10-05T11:20:08.642Z,4.33
2018-10-05T11:22:36.904Z,3.53
2018-10-05T11:25:05.228Z,3.53
2018-10-05T11:27:33.464Z,3.60
2018-10-05T11:30:01.736Z,3.60
2018-10-05T11:32:29.978Z,3.03
2018-10-05T11:34:58.291Z,3.33
2018-10-05T11:37:26.614Z,2.87
2018-10-05T11:39:54.898Z,3.77
2018-10-05T11:42:23.169Z,3.47
2018-10-05T11:44:51.421Z,2.87
2018-10-05T11:47:19.669Z,3.30
2018-10-05T11:49:47.940Z,3.13
2018-10-05T11:52:16.205Z,3.17
2018-10-05T11:54:44.481Z,2.60
2018-10-05T11:57:12.758Z,2.53
2018-10-05T11:59:41.030Z,2.70
2018-10-05T12:02:09.266Z,2.43
2018-10-05T12:04:37.530Z,2.73
2018-10-05T12:07:05.804Z,2.60
2018-10-05T12:09:34.239Z,2.83
2018-10-05T12:12:02.492Z,3.00
2018-10-05T12:14:30.754Z,2.70
2018-10-05T12:16:59.001Z,2.60
2018-10-05T12:19:27.260Z,2.60
2018-10-05T12:21:55.522Z,2.43
2018-10-05T12:24:23.848Z,2.50
2018-10-05T12:26:52.099Z,3.27
2018-10-05T12:29:20.364Z,2.67
2018-10-05T12:31:48.617Z,2.47
2018-10-05T12:34:16.885Z,2.73
2018-10-05T12:36:45.154Z,2.30
2018-10-05T12:39:13.400Z,2.53
2018-10-05T12:41:41.761Z,2.70
2018-10-05T12:44:10.026Z,1.80
2018-10-05T12:46:38.482Z,2.57
2018-10-05T12:49:06.957Z,2.90
2018-10-05T12:51:35.216Z,2.60
2018-10-05T12:54:03.489Z,2.63
2018-10-05T12:56:31.873Z,2.83
2018-10-05T12:59:00.125Z,3.03
2018-10-05T13:01:28.385Z,2.70
2018-10-05T13:03:56.661Z,2.40
2018-10-05T13:06:24.953Z,2.57
2018-10-05T13:08:53.212Z,2.00
2018-10-05T13:11:21.476Z,2.80
2018-10-05T13:13:49.822Z,3.00
2018-10-05T13:16:18.085Z,2.60
2018-10-05T13:18:46.354Z,3.00
2018-10-05T13:21:14.605Z,2.33
2018-10-05T13:23:43.028Z,2.67
2018-10-05T13:26:11.388Z,2.23
2018-10-05T13:28:39.718Z,2.33
2018-10-05T13:31:08.298Z,2.30
2018-10-05T13:33:36.633Z,2.20
2018-10-05T13:36:04.937Z,2.40
2018-10-05T13:38:33.180Z,2.23
2018-10-05T13:41:01.471Z,2.30
2018-10-05T13:43:29.717Z,2.50
2018-10-05T13:45:58.097Z,1.93
2018-10-05T13:48:26.373Z,1.73
2018-10-05T13:50:54.669Z,2.03
2018-10-05T13:53:22.918Z,1.83
2018-10-05T13:55:51.198Z,2.00
2018-10-05T13:58:19.498Z,2.00
2018-10-05T14:00:47.749Z,2.00
2018-10-05T14:03:16.114Z,1.77
2018-10-05T14:05:44.399Z,2.20
2018-10-05T14:08:12.642Z,1.90
2018-10-05T14:10:40.947Z,1.70
2018-10-05T14:13:09.180Z,2.10
2018-10-05T14:15:37.445Z,1.70
2018-10-05T14:18:05.976Z,1.73
2018-10-05T14:20:34.353Z,1.40
2018-10-05T14:23:02.497Z,1.63
2018-10-05T14:25:30.791Z,1.30
2018-10-05T14:27:59.019Z,1.60
2018-10-05T14:30:27.272Z,1.17
2018-10-05T14:32:55.538Z,1.50
2018-10-05T14:35:23.794Z,1.50
2018-10-05T14:37:52.127Z,1.53
2018-10-05T14:40:20.409Z,1.70
2018-10-05T14:42:48.680Z,1.87
2018-10-05T14:45:16.941Z,1.60
2018-10-05T14:47:45.217Z,1.50
2018-10-05T14:50:13.630Z,2.10
2018-10-05T14:52:41.898Z,2.43
2018-10-05T14:55:10.157Z,1.97
2018-10-05T14:57:38.461Z,1.90
2018-10-05T15:00:06.874Z,2.03
2018-10-05T15:02:35.142Z,2.27
2018-10-05T15:05:03.456Z,2.37
2018-10-05T15:07:31.913Z,2.10
2018-10-05T15:10:00.174Z,2.80
2018-10-05T15:12:28.453Z,2.20
2018-10-05T15:14:56.722Z,1.90
2018-10-05T15:17:24.990Z,1.90
2018-10-05T15:19:53.245Z,1.90
2018-10-05T15:22:21.705Z,2.20
2018-10-05T15:24:50.065Z,1.87
2018-10-05T15:27:18.325Z,1.70
2018-10-05T15:29:46.589Z,1.53
2018-10-05T15:32:14.846Z,2.00
2018-10-05T15:34:43.111Z,2.17
2018-10-05T15:37:11.373Z,1.60
2018-10-05T15:39:39.625Z,2.27
2018-10-05T15:42:07.889Z,1.97
2018-10-05T15:44:36.153Z,1.80
2018-10-05T15:47:08.490Z,2.10
2018-10-05T15:49:37.349Z,1.83
2018-10-05T15:52:05.621Z,1.83
2018-10-05T15:54:33.909Z,1.87
2018-10-05T15:57:02.253Z,2.20
2018-10-05T15:59:31.325Z,2.10
2018-10-05T16:01:59.570Z,2.27
2018-10-05T16:04:28.285Z,2.03
2018-10-05T16:06:56.551Z,2.40
2018-10-05T16:09:24.953Z,1.87
2018-10-05T16:11:53.324Z,2.70
2018-10-05T16:14:21.556Z,1.87
2018-10-05T16:16:49.828Z,2.03
2018-10-05T16:19:18.099Z,1.70
2018-10-05T16:21:46.353Z,2.00
2018-10-05T16:24:20.667Z,2.30
2018-10-05T16:26:49.018Z,1.97
2018-10-05T16:29:17.277Z,2.10
2018-10-05T16:31:45.533Z,1.63
2018-10-05T16:34:13.784Z,2.03
2018-10-05T16:36:42.092Z,2.30
2018-10-05T16:39:11.597Z,2.30
2018-10-05T16:41:39.924Z,2.17
2018-10-05T16:44:08.219Z,2.37
2018-10-05T16:46:37.378Z,2.50
2018-10-05T16:49:06.389Z,2.80
2018-10-05T16:51:34.677Z,2.47
2018-10-05T16:54:02.945Z,2.40
2018-10-05T16:56:31.190Z,2.03
2018-10-05T16:58:59.441Z,2.50
2018-10-05T17:01:27.717Z,2.70
2018-10-05T17:03:55.989Z,3.20
2018-10-05T17:06:24.297Z,2.70
2018-10-05T17:08:55.789Z,2.83
2018-10-05T17:11:24.050Z,2.93
2018-10-05T17:13:52.292Z,2.90
2018-10-05T17:16:20.590Z,2.57
2018-10-05T17:18:48.845Z,2.67
2018-10-05T17:21:17.092Z,3.10
2018-10-05T17:23:45.430Z,3.47
2018-10-05T17:26:13.687Z,3.47
2018-10-05T17:28:41.926Z,2.87
2018-10-05T17:31:10.188Z,2.50
2018-10-05T17:33:38.442Z,2.73
2018-10-05T17:36:06.720Z,2.63
2018-10-05T17:38:34.973Z,2.63
2018-10-05T17:41:03.238Z,3.10
2018-10-05T17:43:31.545Z,3.23
2018-10-05T17:45:59.800Z,3.00
2018-10-05T17:48:28.077Z,3.00
2018-10-05T17:50:56.354Z,3.07
2018-10-05T17:53:24.662Z,2.90
2018-10-05T17:55:53.226Z,2.80
2018-10-05T17:58:21.469Z,2.83
2018-10-05T18:00:49.735Z,3.23
2018-10-05T18:03:17.993Z,3.53
2018-10-05T18:05:46.248Z,3.00
2018-10-05T18:08:14.553Z,3.60
2018-10-05T18:10:42.801Z,3.30
2018-10-05T18:13:11.047Z,3.30
2018-10-05T18:15:39.634Z,3.77
2018-10-05T18:18:08.115Z,3.43
2018-10-05T18:20:36.607Z,3.50
2018-10-05T18:23:04.856Z,3.03
2018-10-05T18:25:33.110Z,3.67
2018-10-05T18:28:01.362Z,3.27
2018-10-05T18:30:29.656Z,3.53
2018-10-05T18:32:57.956Z,3.80
2018-10-05T18:35:26.215Z,3.80
2018-10-05T18:37:54.448Z,4.03
2018-10-05T18:40:22.727Z,4.13
2018-10-05T18:42:50.982Z,4.13
2018-10-05T18:45:19.233Z,4.77
2018-10-05T18:47:47.498Z,4.60
2018-10-05T18:50:15.748Z,4.33
2018-10-05T18:52:44.013Z,4.47
2018-10-05T18:55:12.278Z,4.30
2018-10-05T18:57:40.538Z,4.27
2018-10-05T19:00:08.844Z,4.77
2018-10-05T19:02:37.076Z,4.87
2018-10-05T19:05:05.356Z,4.83
2018-10-05T19:07:33.633Z,5.07
2018-10-05T19:10:01.905Z,4.90
2018-10-05T19:12:30.182Z,5.13
2018-10-05T19:14:58.438Z,5.60
2018-10-05T19:17:26.705Z,5.57
2018-10-05T19:19:55.033Z,5.47
2018-10-05T19:22:23.549Z,6.03
2018-10-05T19:24:51.848Z,5.90
2018-10-05T19:27:20.093Z,4.83
2018-10-05T19:29:48.357Z,5.90
2018-10-05T19:32:16.626Z,5.17
2018-10-05T19:34:44.878Z,5.53
2018-10-05T19:37:13.129Z,5.20
2018-10-05T19:39:41.377Z,4.80
2018-10-05T19:42:09.711Z,5.10
2018-10-05T19:44:37.901Z,6.07
2018-10-05T19:47:06.249Z,5.80
2018-10-05T19:49:34.505Z,6.40
2018-10-05T19:52:02.757Z,5.67
2018-10-05T19:54:31.014Z,6.43
2018-10-05T19:56:59.278Z,6.03
2018-10-05T19:59:27.533Z,5.80
2018-10-05T20:01:55.866Z,6.20
2018-10-05T20:04:24.049Z,5.97
2018-10-05T20:06:52.319Z,6.43
2018-10-05T20:09:20.600Z,6.03
2018-10-05T20:11:48.891Z,6.40
2018-10-05T20:14:17.139Z,5.80
2018-10-05T20:16:45.392Z,6.50
2018-10-05T20:19:13.657Z,6.73
2018-10-05T20:21:41.971Z,5.53
2018-10-05T20:24:10.344Z,5.03
2018-10-05T20:26:38.636Z,5.07
2018-10-05T20:29:07.194Z,5.57
2018-10-05T20:31:35.781Z,5.90
2018-10-05T20:34:04.137Z,5.73
2018-10-05T20:36:32.552Z,5.53
2018-10-05T20:39:00.798Z,6.00
2018-10-05T20:41:29.030Z,7.30
2018-10-05T20:43:57.332Z,6.60
2018-10-05T20:46:25.601Z,6.50
2018-10-05T20:48:53.875Z,7.03
2018-10-05T20:51:22.203Z,6.77
2018-10-05T20:53:52.639Z,6.37
2018-10-05T20:56:21.071Z,6.33
2018-10-05T20:58:49.350Z,7.17
2018-10-05T21:01:17.669Z,7.40
2018-10-05T21:03:45.941Z,6.93
2018-10-05T21:06:14.196Z,7.33
2018-10-05T21:08:42.457Z,8.20
2018-10-05T21:11:10.909Z,7.27
2018-10-05T21:13:39.176Z,7.50
2018-10-05T21:16:07.448Z,6.93
2018-10-05T21:18:35.748Z,7.00
2018-10-05T21:21:04.017Z,8.73
2018-10-05T21:23:32.309Z,7.97
2018-10-05T21:26:00.669Z,7.70
2018-10-05T21:28:28.935Z,6.70
2018-10-05T21:30:57.210Z,6.50
2018-10-05T21:33:25.524Z,6.77
2018-10-05T21:35:53.739Z,6.37
2018-10-05T21:38:21.993Z,6.10
2018-10-05T21:40:50.258Z,6.60
2018-10-05T21:43:18.536Z,6.03
2018-10-05T21:45:46.835Z,6.00
2018-10-05T21:48:15.108Z,5.60
2018-10-05T21:50:43.559Z,5.50
2018-10-05T21:53:11.876Z,5.00
2018-10-05T21:55:40.064Z,5.57
2018-10-05T21:58:08.326Z,5.10
2018-10-05T22:00:39.382Z,5.90
2018-10-05T22:03:07.747Z,5.07
2018-10-05T22:05:36.105Z,5.60
2018-10-05T22:08:04.413Z,6.20
2018-10-05T22:10:32.697Z,5.80
2018-10-05T22:13:00.944Z,6.20
2018-10-05T22:15:29.385Z,6.20
2018-10-05T22:17:57.715Z,5.80
2018-10-05T22:20:25.985Z,5.57
2018-10-05T22:22:54.257Z,6.03
2018-10-05T22:25:22.821Z,5.97
2018-10-05T22:27:51.073Z,5.93
2018-10-05T22:30:19.337Z,5.90
2018-10-05T22:32:47.604Z,5.87
2018-10-05T22:35:15.992Z,6.73
2018-10-05T22:37:44.288Z,5.00
2018-10-05T22:40:12.541Z,5.07
2018-10-05T22:42:40.802Z,4.33
2018-10-05T22:45:09.049Z,4.50
2018-10-05T22:47:37.317Z,5.87
2018-10-05T22:50:05.849Z,5.93
2018-10-05T22:52:34.125Z,6.00
2018-10-05T22:55:02.447Z,6.30
2018-10-05T22:57:30.714Z,6.10
2018-10-05T22:59:58.984Z,4.57
2018-10-05T23:02:27.234Z,4.43
2018-10-05T23:04:55.496Z,5.17
2018-10-05T23:07:24.099Z,5.60
2018-10-05T23:10:03.357Z,5.03
2018-10-05T23:12:31.797Z,4.70
2018-10-05T23:15:01.520Z,4.70
2018-10-05T23:17:29.790Z,4.27
2018-10-05T23:19:58.065Z,5.20
2018-10-05T23:22:26.471Z,4.97
2018-10-05T23:24:54.733Z,4.80
2018-10-05T23:27:22.982Z,5.37
2018-10-05T23:29:51.254Z,5.10
2018-10-05T23:32:19.515Z,5.17
2018-10-05T23:34:47.817Z,5.87
2018-10-05T23:37:16.266Z,6.10
2018-10-05T23:39:44.514Z,4.83
2018-10-05T23:42:12.769Z,5.53
2018-10-05T23:44:41.017Z,5.97
2018-10-05T23:47:09.253Z,4.90
2018-10-05T23:49:37.512Z,5.67
2018-10-05T23:52:16.482Z,5.10
2018-10-05T23:54:44.728Z,5.67
2018-10-05T23:57:12.977Z,5.70
2018-10-05T23:59:41.242Z,5.90
